createdAt,value
2023-11-07T00:00:50.243Z,7.90
2023-11-07T00:03:38.289Z,9.30
2023-11-07T00:06:07.044Z,12.20
2023-11-07T00:08:35.083Z,9.40
2023-11-07T00:11:03.422Z,11.10
2023-11-07T00:13:31.689Z,10.60
2023-11-07T00:15:59.687Z,7.90
2023-11-07T00:18:27.932Z,9.30
2023-11-07T00:20:57.498Z,7.60
2023-11-07T00:23:25.549Z,9.90
2023-11-07T00:25:56.242Z,10.10
2023-11-07T00:28:26.880Z,8.60
2023-11-07T00:30:54.875Z,8.60
2023-11-07T00:33:23.050Z,9.90
2023-11-07T00:35:51.168Z,9.70
2023-11-07T00:38:19.808Z,8.30
2023-11-07T00:40:48.951Z,7.60
2023-11-07T00:43:18.672Z,8.50
2023-11-07T00:45:46.721Z,9.40
2023-11-07T00:48:15.015Z,8.20
2023-11-07T00:50:43.319Z,7.70
2023-11-07T00:53:11.483Z,9.50
2023-11-07T00:55:39.502Z,7.70
2023-11-07T00:58:07.672Z,7.50
2023-11-07T01:00:37.075Z,6.80
2023-11-07T01:03:05.843Z,7.80
2023-11-07T01:05:34.228Z,8.70
2023-11-07T01:08:03.081Z,7.60
2023-11-07T01:10:31.366Z,7.20
2023-11-07T01:13:00.673Z,8.40
2023-11-07T01:15:28.670Z,8.50
2023-11-07T01:17:57.256Z,9.70
2023-11-07T01:20:25.435Z,8.10
2023-11-07T01:22:53.655Z,9.70
2023-11-07T01:25:21.718Z,9.00
2023-11-07T01:27:49.899Z,8.80
2023-11-07T01:30:18.094Z,8.70
2023-11-07T01:32:46.903Z,6.60
2023-11-07T01:35:15.009Z,7.40
2023-11-07T01:37:43.247Z,8.70
2023-11-07T01:40:12.016Z,7.20
2023-11-07T01:42:44.634Z,8.00
2023-11-07T01:45:13.315Z,6.00
2023-11-07T01:47:43.757Z,6.20
2023-11-07T01:50:13.619Z,9.80
2023-11-07T01:52:43.240Z,7.30
2023-11-07T01:55:16.335Z,7.60
2023-11-07T01:57:47.821Z,7.70
2023-11-07T02:00:17.901Z,8.20
2023-11-07T02:02:46.201Z,7.50
2023-11-07T02:05:14.810Z,8.10
2023-11-07T02:07:44.782Z,9.50
2023-11-07T02:10:12.871Z,6.00
2023-11-07T02:12:40.868Z,7.00
2023-11-07T02:15:28.098Z,5.20
2023-11-07T02:17:56.785Z,5.30
2023-11-07T02:20:25.268Z,7.40
2023-11-07T02:23:33.886Z,5.60
2023-11-07T02:26:02.861Z,6.60
2023-11-07T02:28:31.258Z,6.80
2023-11-07T02:30:59.423Z,6.80
2023-11-07T02:33:27.720Z,8.30
2023-11-07T02:35:56.309Z,6.70
2023-11-07T02:38:24.964Z,7.70
2023-11-07T02:40:53.242Z,8.50
2023-11-07T02:43:21.314Z,7.80
2023-11-07T02:45:50.215Z,7.10
2023-11-07T02:48:18.581Z,7.70
2023-11-07T02:50:46.875Z,5.20
2023-11-07T02:53:16.494Z,5.80
2023-11-07T02:55:44.645Z,7.00
2023-11-07T02:58:13.572Z,6.90
2023-11-07T03:00:41.956Z,5.80
2023-11-07T03:03:11.202Z,5.50
2023-11-07T03:05:40.180Z,6.60
2023-11-07T03:08:09.353Z,7.20
2023-11-07T03:10:37.751Z,6.40
2023-11-07T03:13:06.501Z,7.50
2023-11-07T03:15:35.966Z,6.90
2023-11-07T03:18:04.348Z,8.40
2023-11-07T03:20:33.818Z,4.70
2023-11-07T03:23:02.011Z,5.50
2023-11-07T03:25:30.416Z,6.40
2023-11-07T03:27:58.455Z,6.80
2023-11-07T03:30:26.409Z,7.10
2023-11-07T03:32:55.617Z,5.80
2023-11-07T03:35:24.593Z,5.40
2023-11-07T03:37:53.335Z,6.40
2023-11-07T03:40:21.518Z,7.70
2023-11-07T03:42:49.668Z,6.70
2023-11-07T03:45:17.742Z,7.10
2023-11-07T03:47:45.795Z,6.30
2023-11-07T03:50:13.952Z,6.30
2023-11-07T03:52:43.241Z,6.70
2023-11-07T03:55:11.237Z,7.40
2023-11-07T03:57:39.219Z,6.20
2023-11-07T04:00:11.962Z,6.80
2023-11-07T04:02:40.109Z,5.50
2023-11-07T04:05:12.082Z,6.60
2023-11-07T04:07:40.152Z,6.90
2023-11-07T04:10:09.003Z,6.90
2023-11-07T04:12:37.288Z,5.60
2023-11-07T04:15:10.722Z,6.50
2023-11-07T04:17:39.647Z,7.10
2023-11-07T04:20:11.039Z,6.70
2023-11-07T04:22:40.520Z,7.30
2023-11-07T04:25:09.648Z,8.20
2023-11-07T04:27:38.181Z,5.90
2023-11-07T04:30:07.903Z,6.50
2023-11-07T04:32:36.336Z,9.20
2023-11-07T04:35:06.976Z,6.30
2023-11-07T04:37:35.176Z,7.60
2023-11-07T04:40:06.092Z,10.00
2023-11-07T04:42:34.111Z,8.40
2023-11-07T04:45:03.405Z,7.00
2023-11-07T04:47:31.560Z,7.90
2023-11-07T04:50:00.646Z,8.60
2023-11-07T04:52:28.932Z,9.90
2023-11-07T04:54:57.513Z,8.60
2023-11-07T04:57:26.484Z,9.20
2023-11-07T04:59:55.876Z,11.70
2023-11-07T05:02:24.210Z,9.10
2023-11-07T05:04:54.880Z,12.20
2023-11-07T05:07:25.161Z,8.20
2023-11-07T05:09:56.509Z,11.50
2023-11-07T05:12:24.549Z,9.70
2023-11-07T05:14:53.493Z,10.00
2023-11-07T05:17:22.264Z,11.80
2023-11-07T05:19:50.470Z,10.70
2023-11-07T05:22:18.522Z,7.80
2023-11-07T05:24:46.532Z,8.40
2023-11-07T05:27:15.331Z,11.30
2023-11-07T05:29:43.505Z,11.20
2023-11-07T05:32:12.737Z,11.90
2023-11-07T05:34:41.400Z,8.20
2023-11-07T05:37:09.683Z,8.30
2023-11-07T05:39:37.675Z,9.70
2023-11-07T05:42:07.952Z,8.20
2023-11-07T05:44:36.132Z,8.90
2023-11-07T05:47:05.847Z,7.70
2023-11-07T05:49:35.426Z,5.70
2023-11-07T05:52:05.076Z,11.60
2023-11-07T05:54:33.050Z,5.50
2023-11-07T05:57:01.300Z,9.90
2023-11-07T05:59:29.542Z,8.30
2023-11-07T06:01:57.538Z,8.90
2023-11-07T06:04:34.638Z,10.50
2023-11-07T06:07:03.187Z,8.60
2023-11-07T06:09:31.413Z,11.10
2023-11-07T06:11:59.583Z,11.20
2023-11-07T06:14:27.739Z,13.70
2023-11-07T06:16:55.929Z,11.40
2023-11-07T06:19:24.958Z,11.90
2023-11-07T06:21:53.087Z,9.90
2023-11-07T06:24:21.054Z,8.70
2023-11-07T06:26:49.077Z,10.40
2023-11-07T06:29:17.116Z,11.00
2023-11-07T06:31:46.966Z,10.80
2023-11-07T06:34:18.022Z,9.60
2023-11-07T06:36:47.313Z,10.80
2023-11-07T06:39:16.992Z,9.20
2023-11-07T06:41:45.959Z,9.00
2023-11-07T06:44:13.971Z,10.50
2023-11-07T06:46:45.435Z,8.80
2023-11-07T06:49:13.578Z,10.40
2023-11-07T06:51:41.777Z,9.70
2023-11-07T06:54:10.552Z,8.10
2023-11-07T06:56:39.921Z,11.50
2023-11-07T06:59:08.114Z,8.60
2023-11-07T07:01:36.664Z,10.50
2023-11-07T07:04:06.848Z,9.90
2023-11-07T07:06:37.465Z,21.10
2023-11-07T07:09:09.816Z,9.60
2023-11-07T07:11:39.676Z,9.20
2023-11-07T07:14:07.940Z,7.40
2023-11-07T07:16:36.463Z,9.60
2023-11-07T07:19:08.451Z,8.40
2023-11-07T07:21:37.292Z,9.90
2023-11-07T07:24:22.869Z,7.70
2023-11-07T07:26:52.264Z,10.10
2023-11-07T07:29:20.655Z,10.50
2023-11-07T07:31:48.834Z,11.60
2023-11-07T07:34:16.925Z,9.60
2023-11-07T07:36:45.895Z,9.30
2023-11-07T07:39:31.965Z,9.70
2023-11-07T07:42:02.054Z,8.70
2023-11-07T07:44:33.609Z,10.20
2023-11-07T07:47:01.984Z,9.70
2023-11-07T07:49:31.857Z,8.60
2023-11-07T07:52:02.371Z,12.90
2023-11-07T07:54:52.505Z,8.00
2023-11-07T07:57:19.131Z,8.90
2023-11-07T07:59:47.499Z,8.40
2023-11-07T08:02:17.231Z,9.20
2023-11-07T08:04:47.989Z,13.10
2023-11-07T08:07:18.542Z,9.50
2023-11-07T08:09:46.626Z,11.30
2023-11-07T08:12:14.841Z,13.80
2023-11-07T08:14:45.543Z,14.70
2023-11-07T08:17:13.714Z,11.60
2023-11-07T08:19:41.724Z,15.70
2023-11-07T08:22:10.747Z,10.10
2023-11-07T08:24:39.820Z,11.50
2023-11-07T08:27:08.010Z,10.80
2023-11-07T08:29:36.297Z,10.50
2023-11-07T08:32:05.592Z,12.60
2023-11-07T08:34:34.706Z,13.20
2023-11-07T08:37:09.270Z,11.70
2023-11-07T08:39:42.484Z,9.70
2023-11-07T08:42:11.929Z,12.10
2023-11-07T08:44:40.616Z,9.70
2023-11-07T08:47:08.987Z,3.40
2023-11-07T08:49:39.049Z,4.80
2023-11-07T08:52:07.158Z,3.80
2023-11-07T08:54:38.137Z,3.50
2023-11-07T08:57:07.157Z,4.40
2023-11-07T08:59:38.039Z,4.20
2023-11-07T09:02:06.385Z,4.20
2023-11-07T09:04:35.517Z,3.60
2023-11-07T09:07:04.811Z,4.40
2023-11-07T09:09:32.921Z,5.20
2023-11-07T09:12:02.145Z,4.40
2023-11-07T09:14:30.447Z,3.90
2023-11-07T09:16:58.509Z,4.90
2023-11-07T09:19:26.679Z,3.20
2023-11-07T09:21:54.887Z,3.10
2023-11-07T09:24:24.212Z,4.10
2023-11-07T09:26:52.339Z,3.70
2023-11-07T09:29:20.426Z,4.50
2023-11-07T09:31:50.246Z,4.80
2023-11-07T09:34:18.439Z,4.10
2023-11-07T09:36:46.980Z,3.20
2023-11-07T09:39:15.366Z,5.60
2023-11-07T09:41:46.546Z,5.60
2023-11-07T09:44:15.617Z,4.50
2023-11-07T09:46:46.428Z,3.60
2023-11-07T09:49:14.771Z,3.80
2023-11-07T09:51:46.037Z,3.80
2023-11-07T09:54:20.187Z,3.70
2023-11-07T09:56:53.940Z,4.30
2023-11-07T09:59:38.056Z,3.90
2023-11-07T10:02:08.039Z,3.40
2023-11-07T10:04:37.816Z,5.70
2023-11-07T10:07:06.346Z,3.50
2023-11-07T10:09:35.113Z,4.30
2023-11-07T10:12:03.888Z,6.90
2023-11-07T10:14:35.434Z,3.10
2023-11-07T10:17:05.728Z,4.60
2023-11-07T10:19:34.086Z,3.90
2023-11-07T10:22:09.784Z,5.00
2023-11-07T10:24:48.013Z,3.00
2023-11-07T10:27:16.637Z,4.20
2023-11-07T10:29:59.492Z,3.90
2023-11-07T10:32:45.941Z,4.40
2023-11-07T10:35:16.189Z,5.30
2023-11-07T10:37:45.156Z,3.20
2023-11-07T10:40:13.420Z,5.90
2023-11-07T10:42:49.157Z,4.30
2023-11-07T10:45:18.742Z,4.20
2023-11-07T10:47:50.250Z,3.70
2023-11-07T10:50:19.127Z,4.20
2023-11-07T10:52:49.279Z,4.60
2023-11-07T10:55:18.149Z,4.70
2023-11-07T10:57:51.629Z,4.70
2023-11-07T11:00:22.444Z,4.20
2023-11-07T11:02:56.600Z,4.80
2023-11-07T11:05:25.964Z,6.10
2023-11-07T11:07:58.846Z,4.50
2023-11-07T11:10:31.757Z,6.70
2023-11-07T11:13:00.740Z,6.60
2023-11-07T11:15:30.252Z,5.10
2023-11-07T11:18:20.557Z,4.70
2023-11-07T11:21:10.077Z,5.10
2023-11-07T11:24:17.427Z,6.20
2023-11-07T11:26:50.556Z,4.10
2023-11-07T11:29:31.053Z,5.40
2023-11-07T11:32:28.354Z,4.50
2023-11-07T11:35:19.185Z,3.30
2023-11-07T11:38:21.383Z,5.10
2023-11-07T11:41:01.452Z,4.10
2023-11-07T11:43:34.643Z,4.70
2023-11-07T11:46:12.884Z,3.50
2023-11-07T11:48:54.032Z,3.80
2023-11-07T11:51:33.623Z,4.10
2023-11-07T11:54:02.076Z,4.10
2023-11-07T11:56:30.512Z,4.10
2023-11-07T11:59:06.542Z,5.10
2023-11-07T12:01:51.904Z,4.10
2023-11-07T12:04:49.411Z,4.30
2023-11-07T12:07:22.688Z,4.50
2023-11-07T12:09:54.394Z,3.40
2023-11-07T12:12:22.966Z,4.40
2023-11-07T12:15:02.171Z,6.30
2023-11-07T12:17:43.643Z,3.70
2023-11-07T12:20:15.540Z,3.80
2023-11-07T12:22:46.823Z,4.50
2023-11-07T12:25:21.312Z,4.90
2023-11-07T12:28:07.465Z,5.70
2023-11-07T12:30:36.638Z,5.80
2023-11-07T12:33:10.214Z,5.70
2023-11-07T12:35:40.037Z,4.40
2023-11-07T12:38:10.745Z,6.90
2023-11-07T12:40:41.513Z,4.80
2023-11-07T12:43:10.524Z,8.00
2023-11-07T12:45:40.116Z,5.70
2023-11-07T12:48:15.101Z,5.00
2023-11-07T12:50:45.294Z,6.40
2023-11-07T12:53:16.232Z,4.30
2023-11-07T12:55:55.834Z,5.60
2023-11-07T12:58:31.673Z,6.10
2023-11-07T13:01:02.193Z,4.20
2023-11-07T13:03:34.241Z,7.10
2023-11-07T13:06:05.184Z,5.40
2023-11-07T13:08:36.165Z,5.90
2023-11-07T13:11:14.737Z,6.00
2023-11-07T13:16:13.115Z,4.90
2023-11-07T13:18:46.273Z,7.40
2023-11-07T13:21:15.385Z,5.50
2023-11-07T13:23:43.709Z,4.90
2023-11-07T13:26:12.485Z,3.30
2023-11-07T13:28:42.573Z,4.20
2023-11-07T13:31:15.321Z,4.80
2023-11-07T13:33:45.498Z,5.80
2023-11-07T13:36:17.180Z,5.10
2023-11-07T13:38:49.199Z,5.50
2023-11-07T13:41:17.948Z,6.10
2023-11-07T13:43:46.615Z,4.60
2023-11-07T13:46:19.908Z,7.00
2023-11-07T13:48:51.982Z,6.40
2023-11-07T13:51:23.516Z,5.60
2023-11-07T13:53:52.615Z,8.10
2023-11-07T13:56:22.228Z,8.70
2023-11-07T13:58:50.681Z,6.70
2023-11-07T14:01:18.787Z,7.60
2023-11-07T14:03:47.388Z,6.80
2023-11-07T14:06:18.010Z,8.60
2023-11-07T14:08:47.208Z,9.90
2023-11-07T14:11:18.076Z,8.30
2023-11-07T14:13:48.867Z,8.10
2023-11-07T14:16:17.541Z,11.00
2023-11-07T14:18:50.123Z,9.20
2023-11-07T14:21:18.632Z,10.10
2023-11-07T14:23:47.355Z,10.20
2023-11-07T14:26:16.415Z,11.30
2023-11-07T14:31:16.445Z,14.60
2023-11-07T14:33:44.707Z,20.90
2023-11-07T14:36:13.178Z,18.90
2023-11-07T14:38:41.410Z,18.00
2023-11-07T14:41:09.992Z,15.90
2023-11-07T14:43:38.186Z,14.10
2023-11-07T14:46:06.962Z,16.90
2023-11-07T14:48:35.881Z,20.10
2023-11-07T14:51:05.100Z,19.30
2023-11-07T14:53:34.029Z,26.40
2023-11-07T14:56:02.063Z,20.70
2023-11-07T14:58:30.487Z,17.80
2023-11-07T15:00:58.851Z,17.40
2023-11-07T15:03:27.226Z,17.60
2023-11-07T15:05:56.001Z,15.60
2023-11-07T15:08:24.403Z,13.00
2023-11-07T15:10:54.307Z,15.60
2023-11-07T15:13:22.591Z,14.80
2023-11-07T15:15:51.162Z,13.70
2023-11-07T15:18:25.042Z,14.80
2023-11-07T15:20:53.939Z,13.80
2023-11-07T15:23:22.066Z,13.80
2023-11-07T15:25:50.317Z,12.30
2023-11-07T15:28:19.340Z,12.10
2023-11-07T15:30:47.382Z,14.60
2023-11-07T15:33:15.874Z,11.80
2023-11-07T15:35:44.145Z,12.30
2023-11-07T15:38:12.196Z,11.90
2023-11-07T15:40:41.260Z,11.50
2023-11-07T15:43:10.073Z,12.90
2023-11-07T15:45:38.609Z,12.60
2023-11-07T15:48:11.152Z,15.50
2023-11-07T15:50:40.966Z,11.10
2023-11-07T15:53:10.223Z,11.30
2023-11-07T15:55:41.413Z,15.50
2023-11-07T15:58:12.437Z,14.40
2023-11-07T16:00:40.780Z,15.30
2023-11-07T16:03:09.193Z,15.10
2023-11-07T16:05:39.233Z,18.60
2023-11-07T16:08:08.513Z,21.00
2023-11-07T16:10:37.684Z,19.10
2023-11-07T16:13:06.808Z,22.90
2023-11-07T16:15:35.481Z,25.20
2023-11-07T16:18:06.240Z,25.90
2023-11-07T16:20:34.496Z,21.40
2023-11-07T16:23:05.557Z,24.00
2023-11-07T16:25:33.521Z,24.40
2023-11-07T16:28:03.997Z,30.50
2023-11-07T16:30:33.884Z,28.20
2023-11-07T16:33:02.318Z,25.10
2023-11-07T16:35:30.489Z,23.70
2023-11-07T16:37:58.601Z,21.00
2023-11-07T16:40:26.752Z,22.50
2023-11-07T16:42:55.960Z,21.60
2023-11-07T16:45:25.021Z,18.10
2023-11-07T16:47:53.279Z,15.60
2023-11-07T16:50:22.174Z,14.30
2023-11-07T16:52:50.955Z,14.10
2023-11-07T16:55:19.806Z,16.00
2023-11-07T16:57:48.765Z,13.90
2023-11-07T17:00:22.045Z,18.40
2023-11-07T17:02:51.820Z,17.70
2023-11-07T17:05:19.946Z,17.90
2023-11-07T17:07:51.426Z,16.10
2023-11-07T17:10:22.329Z,19.20
2023-11-07T17:12:51.410Z,31.10
2023-11-07T17:15:19.607Z,29.40
2023-11-07T17:17:51.892Z,29.20
2023-11-07T17:20:20.727Z,26.40
2023-11-07T17:22:49.467Z,32.10
2023-11-07T17:25:18.356Z,31.80
2023-11-07T17:27:48.510Z,35.90
2023-11-07T17:30:21.453Z,30.60
2023-11-07T17:32:50.082Z,28.70
2023-11-07T17:35:18.602Z,29.80
2023-11-07T17:37:48.647Z,36.20
2023-11-07T17:40:17.032Z,39.80
2023-11-07T17:42:45.791Z,39.30
2023-11-07T17:45:14.723Z,42.00
2023-11-07T17:47:43.046Z,30.40
2023-11-07T17:50:11.722Z,31.40
2023-11-07T17:52:41.493Z,28.70
2023-11-07T17:55:09.902Z,28.70
2023-11-07T17:57:38.198Z,25.20
2023-11-07T18:00:07.492Z,25.40
2023-11-07T18:02:48.415Z,28.00
2023-11-07T18:05:17.135Z,27.30
2023-11-07T18:07:48.616Z,28.30
2023-11-07T18:10:16.830Z,32.30
2023-11-07T18:12:45.066Z,29.50
2023-11-07T18:15:13.611Z,32.10
2023-11-07T18:17:42.212Z,31.60
2023-11-07T18:20:14.539Z,28.60
2023-11-07T18:22:42.686Z,32.40
2023-11-07T18:25:14.062Z,32.80
2023-11-07T18:27:43.453Z,31.90
2023-11-07T18:30:15.162Z,25.80
2023-11-07T18:32:46.460Z,21.10
2023-11-07T18:35:14.909Z,26.20
2023-11-07T18:37:45.821Z,22.50
2023-11-07T18:40:14.592Z,22.40
2023-11-07T18:42:43.081Z,27.70
2023-11-07T18:45:11.870Z,22.40
2023-11-07T18:47:40.837Z,17.60
2023-11-07T18:50:09.719Z,27.40
2023-11-07T18:52:40.111Z,34.40
2023-11-07T18:55:10.850Z,28.30
2023-11-07T18:57:44.655Z,33.20
2023-11-07T19:00:14.769Z,30.20
2023-11-07T19:02:42.979Z,29.60
2023-11-07T19:05:11.510Z,34.00
2023-11-07T19:07:42.342Z,24.70
2023-11-07T19:10:10.666Z,30.60
2023-11-07T19:12:39.087Z,27.20
2023-11-07T19:15:08.101Z,25.10
2023-11-07T19:17:37.517Z,20.20
2023-11-07T19:20:07.280Z,20.50
2023-11-07T19:22:35.900Z,22.40
2023-11-07T19:25:07.353Z,22.00
2023-11-07T19:27:41.148Z,20.80
2023-11-07T19:30:14.371Z,17.40
2023-11-07T19:32:42.630Z,16.50
2023-11-07T19:35:13.368Z,14.20
2023-11-07T19:37:41.824Z,15.50
2023-11-07T19:40:10.654Z,15.30
2023-11-07T19:42:38.758Z,18.30
2023-11-07T19:45:07.669Z,20.90
2023-11-07T19:47:35.771Z,24.10
2023-11-07T19:50:04.390Z,31.40
2023-11-07T19:52:34.593Z,36.70
2023-11-07T19:55:04.190Z,37.70
2023-11-07T19:57:37.022Z,37.90
2023-11-07T20:00:14.876Z,44.20
2023-11-07T20:02:45.592Z,40.70
2023-11-07T20:05:13.798Z,39.70
2023-11-07T20:07:54.114Z,37.10
2023-11-07T20:10:25.842Z,35.30
2023-11-07T20:12:54.064Z,42.40
2023-11-07T20:15:22.496Z,44.40
2023-11-07T20:17:50.675Z,37.40
2023-11-07T20:20:20.210Z,32.60
2023-11-07T20:22:49.558Z,33.90
2023-11-07T20:25:17.716Z,32.60
2023-11-07T20:27:45.740Z,33.50
2023-11-07T20:30:14.093Z,35.50
2023-11-07T20:32:42.121Z,31.20
2023-11-07T20:35:11.013Z,36.30
2023-11-07T20:37:39.374Z,30.50
2023-11-07T20:40:11.195Z,37.70
2023-11-07T20:42:39.747Z,31.90
2023-11-07T20:45:13.394Z,36.00
2023-11-07T20:47:42.255Z,32.60
2023-11-07T20:50:10.746Z,31.80
2023-11-07T20:52:39.835Z,29.70
2023-11-07T20:55:08.663Z,31.30
2023-11-07T20:57:38.975Z,31.70
2023-11-07T21:00:08.809Z,34.00
2023-11-07T21:02:38.023Z,29.50
2023-11-07T21:05:07.684Z,28.10
2023-11-07T21:07:36.616Z,31.00
2023-11-07T21:10:05.909Z,29.50
2023-11-07T21:12:34.242Z,32.60
2023-11-07T21:15:04.002Z,27.40
2023-11-07T21:17:32.932Z,29.40
2023-11-07T21:20:01.404Z,31.80
2023-11-07T21:22:29.439Z,27.90
2023-11-07T21:24:57.458Z,30.50
2023-11-07T21:27:25.486Z,30.20
2023-11-07T21:29:53.562Z,26.00
2023-11-07T21:32:21.894Z,26.50
2023-11-07T21:34:49.927Z,25.90
2023-11-07T21:37:17.922Z,25.70
2023-11-07T21:39:46.126Z,26.60
2023-11-07T21:42:14.108Z,24.60
2023-11-07T21:44:42.611Z,26.50
2023-11-07T21:47:13.178Z,27.00
2023-11-07T21:49:44.662Z,26.60
2023-11-07T21:52:12.676Z,23.90
2023-11-07T21:54:44.374Z,29.10
2023-11-07T21:57:13.538Z,27.50
2023-11-07T21:59:41.857Z,30.70
2023-11-07T22:02:10.049Z,29.30
2023-11-07T22:04:38.414Z,29.90
2023-11-07T22:07:06.722Z,28.10
2023-11-07T22:09:35.007Z,34.50
2023-11-07T22:12:04.374Z,26.10
2023-11-07T22:14:32.990Z,25.10
2023-11-07T22:17:00.994Z,27.20
2023-11-07T22:19:28.954Z,26.40
2023-11-07T22:21:57.667Z,26.80
2023-11-07T22:24:26.661Z,27.90
2023-11-07T22:26:55.615Z,26.20
2023-11-07T22:29:23.609Z,23.30
2023-11-07T22:31:51.800Z,22.00
2023-11-07T22:34:21.699Z,22.30
2023-11-07T22:36:49.951Z,25.50
2023-11-07T22:39:18.326Z,25.60
2023-11-07T22:41:50.195Z,21.10
2023-11-07T22:44:18.241Z,20.80
2023-11-07T22:46:47.771Z,21.00
2023-11-07T22:49:15.955Z,20.80
2023-11-07T22:51:44.192Z,16.30
2023-11-07T22:54:12.535Z,15.20
2023-11-07T22:56:40.807Z,11.40
2023-11-07T22:59:08.796Z,14.70
2023-11-07T23:01:36.939Z,12.90
2023-11-07T23:04:07.136Z,13.00
2023-11-07T23:06:35.460Z,15.90
2023-11-07T23:09:05.127Z,15.90
2023-11-07T23:11:33.560Z,15.20
2023-11-07T23:14:01.831Z,20.20
2023-11-07T23:16:30.136Z,18.30
2023-11-07T23:18:58.154Z,19.30
2023-11-07T23:21:27.312Z,16.60
2023-11-07T23:23:56.352Z,20.80
2023-11-07T23:26:30.964Z,19.90
2023-11-07T23:29:02.932Z,19.90
2023-11-07T23:31:34.994Z,19.70
2023-11-07T23:34:04.073Z,17.30
2023-11-07T23:36:32.489Z,19.90
2023-11-07T23:39:00.961Z,16.70
2023-11-07T23:41:29.621Z,17.60
2023-11-07T23:43:57.575Z,16.20
2023-11-07T23:46:25.771Z,18.40
2023-11-07T23:48:54.662Z,18.50
2023-11-07T23:51:22.871Z,18.70
2023-11-07T23:53:50.962Z,17.90
2023-11-07T23:56:19.067Z,17.80
2023-11-07T23:58:48.493Z,17.40
